Terminal Aerodrome Forecast
Issued by NWS

Home | Current Version | Previous Version | Text Only | Print | Product List | Glossary On
Versions: 1 2 3 4 5 6 7 8 9 10 11 12 13 14 15 16 17 18 19 20 21 22 23 24 25 26 27 28 29 30 31 32 33 34 35 36 37 38 39 40 41 42 43
000
FTUS43 KDDC 271230 RRA
TAFHYS
TAF
KHYS 271230Z 2713/2812 20006KT P6SM SCT120 SCT250
     FM271600 19014G22KT P6SM OVC250
     FM280000 20012KT P6SM OVC250 PROB30 2800/2806 P6SM TS BKN050CB
     FM280300 19010KT P6SM SCT110 BKN250=

USA.gov is the U.S. government's official web portal to all federal, state and local government web resources and services.